This is the latest recevied weather packets stored in our database for station/object 9W2GDL-10. If no packets are shown the sender has not sent any weather packets the latest 10 day(s).
| Time | Temp. | Humidity | Pressure | Rain* | Wind** | Luminosity | Snow |
|---|---|---|---|---|---|---|---|
| 1788020247 | 31.67° C | 64% | 1012.8 hPa | - | - | - | - |
| 1788019646 | 32.22° C | 63% | 1012.7 hPa | - | - | - | - |
| 1788019046 | 31.67° C | 66% | 1012.7 hPa | - | - | - | - |
| 1788018445 | 32.22° C | 66% | 1012.5 hPa | - | - | - | - |
| 1788017844 | 32.22° C | 66% | 1012.4 hPa | - | - | - | - |
| 1788017243 | 31.67° C | 68% | 1012.4 hPa | - | - | - | - |
| 1788016642 | 30.56° C | 72% | 1012.3 hPa | - | - | - | - |
| 1788016041 | 30.56° C | 71% | 1012.2 hPa | - | - | - | - |
| 1788015441 | 30.56° C | 71% | 1012.2 hPa | - | - | - | - |
| 1788014840 | 30.56° C | 72% | 1012.1 hPa | - | - | - | - |
| 1788014239 | 30.56° C | 72% | 1012 hPa | - | - | - | - |
| 1788013637 | 30.56° C | 72% | 1012 hPa | - | - | - | - |
| 1788013036 | 30.56° C | 72% | 1011.9 hPa | - | - | - | - |
| 1788012436 | 31.11° C | 70% | 1011.9 hPa | - | - | - | - |
| 1788011835 | 31.11° C | 71% | 1011.9 hPa | - | - | - | - |
| 1788011234 | 31.11° C | 71% | 1011.9 hPa | - | - | - | - |
| 1788010633 | 31.11° C | 71% | 1011.7 hPa | - | - | - | - |
| 1788010032 | 31.11° C | 72% | 1011.7 hPa | - | - | - | - |
| 1788009431 | 31.11° C | 72% | 1011.5 hPa | - | - | - | - |
| 1788008831 | 31.67° C | 72% | 1011.4 hPa | - | - | - | - |
| 1788008230 | 31.11° C | 72% | 1011.3 hPa | - | - | - | - |
| 1788007629 | 31.67° C | 72% | 1011.2 hPa | - | - | - | - |
| 1788007028 | 31.11° C | 74% | 1011.1 hPa | - | - | - | - |
| 1788006427 | 31.11° C | 73% | 1011 hPa | - | - | - | - |
| 1788005826 | 31.11° C | 73% | 1010.8 hPa | - | - | - | - |
* Rain since midnight (hover to see other rain measurements)
** Current wind speed in m/s (hover to see current wind gust speed)